sensor_id;sensor_type;location;lat;lon;timestamp;temperature;humidity
30889;DHT22;51092;50.874;7.024;2023-03-23T00:00:00;14.10;75.10
30889;DHT22;51092;50.874;7.024;2023-03-23T00:01:05;14.10;75.20
30889;DHT22;51092;50.874;7.024;2023-03-23T00:02:07;14.10;75.20
30889;DHT22;51092;50.874;7.024;2023-03-23T00:03:09;14.10;75.00
30889;DHT22;51092;50.874;7.024;2023-03-23T00:04:11;14.10;75.00
30889;DHT22;51092;50.874;7.024;2023-03-23T00:05:14;14.10;75.20
30889;DHT22;51092;50.874;7.024;2023-03-23T00:06:16;14.10;75.20
30889;DHT22;51092;50.874;7.024;2023-03-23T00:07:19;14.10;75.10
30889;DHT22;51092;50.874;7.024;2023-03-23T00:08:22;14.10;75.30
30889;DHT22;51092;50.874;7.024;2023-03-23T00:09:23;14.20;75.10
30889;DHT22;51092;50.874;7.024;2023-03-23T00:10:26;14.20;74.90
30889;DHT22;51092;50.874;7.024;2023-03-23T00:11:33;14.10;75.30
30889;DHT22;51092;50.874;7.024;2023-03-23T00:12:34;14.10;75.30
30889;DHT22;51092;50.874;7.024;2023-03-23T00:13:37;14.00;75.60
30889;DHT22;51092;50.874;7.024;2023-03-23T00:14:39;14.10;75.50
30889;DHT22;51092;50.874;7.024;2023-03-23T00:15:44;14.00;75.70
30889;DHT22;51092;50.874;7.024;2023-03-23T00:16:45;14.00;75.80
30889;DHT22;51092;50.874;7.024;2023-03-23T00:17:48;14.10;75.60
30889;DHT22;51092;50.874;7.024;2023-03-23T00:19:00;14.10;75.70
30889;DHT22;51092;50.874;7.024;2023-03-23T00:20:03;14.10;75.60
30889;DHT22;51092;50.874;7.024;2023-03-23T00:21:06;14.00;75.80
30889;DHT22;51092;50.874;7.024;2023-03-23T00:22:09;14.10;75.70
30889;DHT22;51092;50.874;7.024;2023-03-23T00:23:10;14.10;75.70
30889;DHT22;51092;50.874;7.024;2023-03-23T00:24:14;14.10;75.60
30889;DHT22;51092;50.874;7.024;2023-03-23T00:25:18;14.10;75.70
30889;DHT22;51092;50.874;7.024;2023-03-23T00:26:20;14.10;75.80
30889;DHT22;51092;50.874;7.024;2023-03-23T00:27:23;14.10;75.70
30889;DHT22;51092;50.874;7.024;2023-03-23T00:28:26;14.20;75.30
30889;DHT22;51092;50.874;7.024;2023-03-23T00:29:28;14.20;75.30
30889;DHT22;51092;50.874;7.024;2023-03-23T00:30:30;14.10;75.60
30889;DHT22;51092;50.874;7.024;2023-03-23T00:31:33;14.10;75.60
30889;DHT22;51092;50.874;7.024;2023-03-23T00:32:36;14.10;75.70
30889;DHT22;51092;50.874;7.024;2023-03-23T00:33:39;14.10;75.80
30889;DHT22;51092;50.874;7.024;2023-03-23T00:34:42;14.00;75.90
30889;DHT22;51092;50.874;7.024;2023-03-23T00:35:47;14.00;75.90
30889;DHT22;51092;50.874;7.024;2023-03-23T00:36:51;14.00;75.90
30889;DHT22;51092;50.874;7.024;2023-03-23T00:37:54;14.00;75.90
30889;DHT22;51092;50.874;7.024;2023-03-23T00:38:56;14.00;76.10
30889;DHT22;51092;50.874;7.024;2023-03-23T00:40:00;14.00;76.10
30889;DHT22;51092;50.874;7.024;2023-03-23T00:41:02;14.00;76.20
30889;DHT22;51092;50.874;7.024;2023-03-23T00:42:06;14.00;76.00
30889;DHT22;51092;50.874;7.024;2023-03-23T00:43:07;14.00;76.10
30889;DHT22;51092;50.874;7.024;2023-03-23T00:44:14;14.10;76.00
30889;DHT22;51092;50.874;7.024;2023-03-23T00:45:18;14.10;75.90
30889;DHT22;51092;50.874;7.024;2023-03-23T00:46:20;14.10;75.90
30889;DHT22;51092;50.874;7.024;2023-03-23T00:47:21;14.10;76.20
30889;DHT22;51092;50.874;7.024;2023-03-23T00:48:24;14.00;76.10
30889;DHT22;51092;50.874;7.024;2023-03-23T00:49:26;14.00;76.10
30889;DHT22;51092;50.874;7.024;2023-03-23T00:50:28;13.90;76.50
30889;DHT22;51092;50.874;7.024;2023-03-23T00:51:30;13.90;76.50
30889;DHT22;51092;50.874;7.024;2023-03-23T00:52:33;13.90;76.50
30889;DHT22;51092;50.874;7.024;2023-03-23T00:53:35;13.90;76.40
30889;DHT22;51092;50.874;7.024;2023-03-23T00:54:37;13.90;76.60
30889;DHT22;51092;50.874;7.024;2023-03-23T00:55:40;13.90;76.50
30889;DHT22;51092;50.874;7.024;2023-03-23T00:56:42;13.90;76.50
30889;DHT22;51092;50.874;7.024;2023-03-23T00:57:46;13.90;76.50
30889;DHT22;51092;50.874;7.024;2023-03-23T00:58:49;13.90;76.70
30889;DHT22;51092;50.874;7.024;2023-03-23T00:59:51;13.90;76.60
30889;DHT22;51092;50.874;7.024;2023-03-23T01:00:53;13.90;76.70
30889;DHT22;51092;50.874;7.024;2023-03-23T01:01:55;13.90;76.60
30889;DHT22;51092;50.874;7.024;2023-03-23T01:02:57;13.90;76.50
30889;DHT22;51092;50.874;7.024;2023-03-23T01:04:00;13.90;76.50
30889;DHT22;51092;50.874;7.024;2023-03-23T01:05:02;13.80;76.80
30889;DHT22;51092;50.874;7.024;2023-03-23T01:06:06;13.80;76.80
30889;DHT22;51092;50.874;7.024;2023-03-23T01:07:09;13.80;77.00
30889;DHT22;51092;50.874;7.024;2023-03-23T01:08:13;13.80;77.10
30889;DHT22;51092;50.874;7.024;2023-03-23T01:09:16;13.80;77.30
30889;DHT22;51092;50.874;7.024;2023-03-23T01:10:20;13.80;77.40
30889;DHT22;51092;50.874;7.024;2023-03-23T01:11:21;13.90;77.30
30889;DHT22;51092;50.874;7.024;2023-03-23T01:12:24;13.80;77.80
30889;DHT22;51092;50.874;7.024;2023-03-23T01:13:28;13.80;78.20
30889;DHT22;51092;50.874;7.024;2023-03-23T01:14:30;13.80;78.50
30889;DHT22;51092;50.874;7.024;2023-03-23T01:15:32;13.70;79.10
30889;DHT22;51092;50.874;7.024;2023-03-23T01:16:34;13.70;79.60
30889;DHT22;51092;50.874;7.024;2023-03-23T01:17:36;13.60;79.90
30889;DHT22;51092;50.874;7.024;2023-03-23T01:18:39;13.60;80.20
30889;DHT22;51092;50.874;7.024;2023-03-23T01:19:40;13.50;80.80
30889;DHT22;51092;50.874;7.024;2023-03-23T01:20:43;13.50;80.40
30889;DHT22;51092;50.874;7.024;2023-03-23T01:21:45;13.50;80.50
30889;DHT22;51092;50.874;7.024;2023-03-23T01:22:47;13.50;79.80
30889;DHT22;51092;50.874;7.024;2023-03-23T01:23:49;13.50;80.30
30889;DHT22;51092;50.874;7.024;2023-03-23T01:24:51;13.50;80.10
30889;DHT22;51092;50.874;7.024;2023-03-23T01:25:52;13.60;79.90
30889;DHT22;51092;50.874;7.024;2023-03-23T01:26:59;13.60;79.40
30889;DHT22;51092;50.874;7.024;2023-03-23T01:28:07;13.60;79.60
30889;DHT22;51092;50.874;7.024;2023-03-23T01:29:10;13.60;79.40
30889;DHT22;51092;50.874;7.024;2023-03-23T01:30:13;13.60;79.60
30889;DHT22;51092;50.874;7.024;2023-03-23T01:31:16;13.60;79.30
30889;DHT22;51092;50.874;7.024;2023-03-23T01:32:19;13.50;80.00
30889;DHT22;51092;50.874;7.024;2023-03-23T01:33:21;13.60;79.50
30889;DHT22;51092;50.874;7.024;2023-03-23T01:34:23;13.50;79.90
30889;DHT22;51092;50.874;7.024;2023-03-23T01:35:24;13.50;79.80
30889;DHT22;51092;50.874;7.024;2023-03-23T01:36:28;13.60;79.70
30889;DHT22;51092;50.874;7.024;2023-03-23T01:37:33;13.50;79.70
30889;DHT22;51092;50.874;7.024;2023-03-23T01:38:37;13.50;80.00
30889;DHT22;51092;50.874;7.024;2023-03-23T01:39:38;13.60;79.70
30889;DHT22;51092;50.874;7.024;2023-03-23T01:40:43;13.60;79.60
30889;DHT22;51092;50.874;7.024;2023-03-23T01:41:44;13.60;79.60
30889;DHT22;51092;50.874;7.024;2023-03-23T01:42:47;13.60;79.50
30889;DHT22;51092;50.874;7.024;2023-03-23T01:43:56;13.70;79.20
30889;DHT22;51092;50.874;7.024;2023-03-23T01:45:27;13.60;79.10
30889;DHT22;51092;50.874;7.024;2023-03-23T01:46:31;13.60;79.30
30889;DHT22;51092;50.874;7.024;2023-03-23T01:47:33;13.70;79.10
30889;DHT22;51092;50.874;7.024;2023-03-23T01:48:36;13.60;79.40
30889;DHT22;51092;50.874;7.024;2023-03-23T01:49:42;13.60;80.30
30889;DHT22;51092;50.874;7.024;2023-03-23T01:50:51;13.60;80.70
30889;DHT22;51092;50.874;7.024;2023-03-23T01:51:55;13.60;82.00
30889;DHT22;51092;50.874;7.024;2023-03-23T01:52:59;13.50;81.70
30889;DHT22;51092;50.874;7.024;2023-03-23T01:54:05;13.40;83.20
30889;DHT22;51092;50.874;7.024;2023-03-23T01:55:09;13.40;83.20
30889;DHT22;51092;50.874;7.024;2023-03-23T01:56:13;13.30;84.50
30889;DHT22;51092;50.874;7.024;2023-03-23T01:57:17;13.20;84.60
30889;DHT22;51092;50.874;7.024;2023-03-23T01:58:23;13.20;86.60
30889;DHT22;51092;50.874;7.024;2023-03-23T01:59:29;13.20;86.20
30889;DHT22;51092;50.874;7.024;2023-03-23T02:00:33;13.20;86.80
30889;DHT22;51092;50.874;7.024;2023-03-23T02:01:36;13.20;86.70
30889;DHT22;51092;50.874;7.024;2023-03-23T02:02:41;13.00;86.90
30889;DHT22;51092;50.874;7.024;2023-03-23T02:03:45;13.10;86.30
30889;DHT22;51092;50.874;7.024;2023-03-23T02:04:49;13.00;87.30
30889;DHT22;51092;50.874;7.024;2023-03-23T02:05:51;13.00;86.20
30889;DHT22;51092;50.874;7.024;2023-03-23T02:06:54;12.90;87.30
30889;DHT22;51092;50.874;7.024;2023-03-23T02:07:59;13.00;85.90
30889;DHT22;51092;50.874;7.024;2023-03-23T02:09:04;13.00;86.20
30889;DHT22;51092;50.874;7.024;2023-03-23T02:10:09;13.10;85.90
30889;DHT22;51092;50.874;7.024;2023-03-23T02:11:15;13.10;85.80
30889;DHT22;51092;50.874;7.024;2023-03-23T02:12:17;13.10;85.20
30889;DHT22;51092;50.874;7.024;2023-03-23T02:13:19;13.10;85.10
30889;DHT22;51092;50.874;7.024;2023-03-23T02:14:23;13.10;85.10
30889;DHT22;51092;50.874;7.024;2023-03-23T02:15:30;13.10;85.00
30889;DHT22;51092;50.874;7.024;2023-03-23T02:16:43;13.10;85.00
30889;DHT22;51092;50.874;7.024;2023-03-23T02:17:49;13.10;85.90
30889;DHT22;51092;50.874;7.024;2023-03-23T02:19:07;13.00;85.90
30889;DHT22;51092;50.874;7.024;2023-03-23T02:20:36;13.10;85.50
30889;DHT22;51092;50.874;7.024;2023-03-23T02:21:59;13.10;85.80
30889;DHT22;51092;50.874;7.024;2023-03-23T02:23:26;13.10;86.10
30889;DHT22;51092;50.874;7.024;2023-03-23T02:25:00;13.10;86.60
30889;DHT22;51092;50.874;7.024;2023-03-23T02:26:25;13.00;87.10
30889;DHT22;51092;50.874;7.024;2023-03-23T02:30:09;12.90;86.30
30889;DHT22;51092;50.874;7.024;2023-03-23T02:31:26;12.90;86.60
30889;DHT22;51092;50.874;7.024;2023-03-23T02:32:56;12.90;86.10
30889;DHT22;51092;50.874;7.024;2023-03-23T02:34:06;12.90;86.20
30889;DHT22;51092;50.874;7.024;2023-03-23T02:35:13;12.90;86.00
30889;DHT22;51092;50.874;7.024;2023-03-23T02:36:23;12.90;86.10
30889;DHT22;51092;50.874;7.024;2023-03-23T02:37:31;12.90;86.00
30889;DHT22;51092;50.874;7.024;2023-03-23T02:38:39;13.00;85.70
30889;DHT22;51092;50.874;7.024;2023-03-23T02:39:47;13.00;85.40
30889;DHT22;51092;50.874;7.024;2023-03-23T02:40:51;13.00;85.30
30889;DHT22;51092;50.874;7.024;2023-03-23T02:41:57;13.00;85.90
30889;DHT22;51092;50.874;7.024;2023-03-23T02:43:01;13.00;86.00
30889;DHT22;51092;50.874;7.024;2023-03-23T02:44:03;13.10;86.60
30889;DHT22;51092;50.874;7.024;2023-03-23T02:45:09;13.00;86.30
30889;DHT22;51092;50.874;7.024;2023-03-23T02:46:13;13.00;86.30
30889;DHT22;51092;50.874;7.024;2023-03-23T02:47:18;13.00;85.80
30889;DHT22;51092;50.874;7.024;2023-03-23T02:48:25;13.00;86.60
30889;DHT22;51092;50.874;7.024;2023-03-23T02:49:33;13.00;86.60
30889;DHT22;51092;50.874;7.024;2023-03-23T02:50:37;12.90;86.70
30889;DHT22;51092;50.874;7.024;2023-03-23T02:51:41;13.00;86.40
30889;DHT22;51092;50.874;7.024;2023-03-23T02:52:45;12.90;86.30
30889;DHT22;51092;50.874;7.024;2023-03-23T02:53:50;12.90;86.50
30889;DHT22;51092;50.874;7.024;2023-03-23T02:54:54;12.90;86.40
30889;DHT22;51092;50.874;7.024;2023-03-23T02:55:58;12.90;86.50
30889;DHT22;51092;50.874;7.024;2023-03-23T02:57:02;12.90;86.40
30889;DHT22;51092;50.874;7.024;2023-03-23T02:58:05;12.90;86.60
30889;DHT22;51092;50.874;7.024;2023-03-23T02:59:07;12.90;86.70
30889;DHT22;51092;50.874;7.024;2023-03-23T03:00:13;12.90;86.40
30889;DHT22;51092;50.874;7.024;2023-03-23T03:01:50;12.90;86.30
30889;DHT22;51092;50.874;7.024;2023-03-23T03:02:55;12.90;86.60
30889;DHT22;51092;50.874;7.024;2023-03-23T03:03:58;12.90;86.50
30889;DHT22;51092;50.874;7.024;2023-03-23T03:05:08;12.90;86.60
30889;DHT22;51092;50.874;7.024;2023-03-23T03:06:19;12.90;86.60
30889;DHT22;51092;50.874;7.024;2023-03-23T03:07:39;12.90;86.70
30889;DHT22;51092;50.874;7.024;2023-03-23T03:08:52;12.90;86.50
30889;DHT22;51092;50.874;7.024;2023-03-23T03:09:58;12.90;86.60
30889;DHT22;51092;50.874;7.024;2023-03-23T03:11:04;12.90;86.40
30889;DHT22;51092;50.874;7.024;2023-03-23T03:12:10;12.90;86.40
30889;DHT22;51092;50.874;7.024;2023-03-23T03:13:22;12.90;86.40
30889;DHT22;51092;50.874;7.024;2023-03-23T03:14:30;12.90;86.30
30889;DHT22;51092;50.874;7.024;2023-03-23T03:15:36;13.00;86.50
30889;DHT22;51092;50.874;7.024;2023-03-23T03:16:40;13.00;86.10
30889;DHT22;51092;50.874;7.024;2023-03-23T03:17:52;12.90;86.30
30889;DHT22;51092;50.874;7.024;2023-03-23T03:18:59;13.00;86.20
30889;DHT22;51092;50.874;7.024;2023-03-23T03:20:06;13.00;86.30
30889;DHT22;51092;50.874;7.024;2023-03-23T03:21:13;13.00;85.60
30889;DHT22;51092;50.874;7.024;2023-03-23T03:22:17;12.90;86.30
30889;DHT22;51092;50.874;7.024;2023-03-23T03:23:23;12.90;86.60
30889;DHT22;51092;50.874;7.024;2023-03-23T03:24:28;12.90;86.70
30889;DHT22;51092;50.874;7.024;2023-03-23T03:25:30;12.90;86.90
30889;DHT22;51092;50.874;7.024;2023-03-23T03:26:33;12.90;86.90
30889;DHT22;51092;50.874;7.024;2023-03-23T03:27:35;13.00;86.20
30889;DHT22;51092;50.874;7.024;2023-03-23T03:28:37;13.00;86.10
30889;DHT22;51092;50.874;7.024;2023-03-23T03:29:40;12.90;86.20
30889;DHT22;51092;50.874;7.024;2023-03-23T03:30:44;12.90;86.40
30889;DHT22;51092;50.874;7.024;2023-03-23T03:31:47;12.90;86.80
30889;DHT22;51092;50.874;7.024;2023-03-23T03:32:52;12.90;86.60
30889;DHT22;51092;50.874;7.024;2023-03-23T03:33:54;12.90;86.60
30889;DHT22;51092;50.874;7.024;2023-03-23T03:34:58;12.90;86.80
30889;DHT22;51092;50.874;7.024;2023-03-23T03:36:03;12.90;86.60
30889;DHT22;51092;50.874;7.024;2023-03-23T03:37:07;12.90;86.90
30889;DHT22;51092;50.874;7.024;2023-03-23T03:38:10;13.00;86.60
30889;DHT22;51092;50.874;7.024;2023-03-23T03:39:13;12.90;86.50
30889;DHT22;51092;50.874;7.024;2023-03-23T03:40:18;12.90;86.90
30889;DHT22;51092;50.874;7.024;2023-03-23T03:41:20;12.90;87.30
30889;DHT22;51092;50.874;7.024;2023-03-23T03:42:23;12.90;87.10
30889;DHT22;51092;50.874;7.024;2023-03-23T03:43:25;12.90;86.80
30889;DHT22;51092;50.874;7.024;2023-03-23T03:44:27;12.90;86.60
30889;DHT22;51092;50.874;7.024;2023-03-23T03:45:29;12.80;87.20
30889;DHT22;51092;50.874;7.024;2023-03-23T03:46:31;12.80;87.90
30889;DHT22;51092;50.874;7.024;2023-03-23T03:47:34;12.80;88.00
30889;DHT22;51092;50.874;7.024;2023-03-23T03:48:36;12.70;88.30
30889;DHT22;51092;50.874;7.024;2023-03-23T03:49:38;12.80;88.30
30889;DHT22;51092;50.874;7.024;2023-03-23T03:50:40;12.80;88.10
30889;DHT22;51092;50.874;7.024;2023-03-23T03:51:44;12.80;88.00
30889;DHT22;51092;50.874;7.024;2023-03-23T03:52:46;12.80;88.10
30889;DHT22;51092;50.874;7.024;2023-03-23T03:53:49;12.80;87.80
30889;DHT22;51092;50.874;7.024;2023-03-23T03:54:51;12.80;88.30
30889;DHT22;51092;50.874;7.024;2023-03-23T03:55:54;12.80;87.70
30889;DHT22;51092;50.874;7.024;2023-03-23T03:57:00;12.80;88.00
30889;DHT22;51092;50.874;7.024;2023-03-23T03:58:02;12.80;87.90
30889;DHT22;51092;50.874;7.024;2023-03-23T03:59:05;12.90;87.70
30889;DHT22;51092;50.874;7.024;2023-03-23T04:00:08;12.90;87.50
30889;DHT22;51092;50.874;7.024;2023-03-23T04:01:16;12.80;87.80
30889;DHT22;51092;50.874;7.024;2023-03-23T04:02:19;12.80;88.00
30889;DHT22;51092;50.874;7.024;2023-03-23T04:03:21;12.80;88.20
30889;DHT22;51092;50.874;7.024;2023-03-23T04:04:25;12.70;88.70
30889;DHT22;51092;50.874;7.024;2023-03-23T04:05:26;12.70;88.90
30889;DHT22;51092;50.874;7.024;2023-03-23T04:06:30;12.70;89.10
30889;DHT22;51092;50.874;7.024;2023-03-23T04:07:35;12.60;89.60
30889;DHT22;51092;50.874;7.024;2023-03-23T04:08:39;12.60;89.90
30889;DHT22;51092;50.874;7.024;2023-03-23T04:09:42;12.60;89.80
30889;DHT22;51092;50.874;7.024;2023-03-23T04:10:47;12.60;89.70
30889;DHT22;51092;50.874;7.024;2023-03-23T04:11:50;12.60;90.20
30889;DHT22;51092;50.874;7.024;2023-03-23T04:12:51;12.60;90.00
30889;DHT22;51092;50.874;7.024;2023-03-23T04:13:54;12.60;90.40
30889;DHT22;51092;50.874;7.024;2023-03-23T04:14:55;12.60;90.10
30889;DHT22;51092;50.874;7.024;2023-03-23T04:15:58;12.70;89.70
30889;DHT22;51092;50.874;7.024;2023-03-23T04:17:01;12.60;90.10
30889;DHT22;51092;50.874;7.024;2023-03-23T04:18:03;12.60;90.20
30889;DHT22;51092;50.874;7.024;2023-03-23T04:19:07;12.60;90.30
30889;DHT22;51092;50.874;7.024;2023-03-23T04:20:09;12.60;90.20
30889;DHT22;51092;50.874;7.024;2023-03-23T04:21:18;12.60;90.10
30889;DHT22;51092;50.874;7.024;2023-03-23T04:22:20;12.60;90.00
30889;DHT22;51092;50.874;7.024;2023-03-23T04:23:28;12.60;90.20
30889;DHT22;51092;50.874;7.024;2023-03-23T04:24:34;12.50;90.60
30889;DHT22;51092;50.874;7.024;2023-03-23T04:25:36;12.50;90.70
30889;DHT22;51092;50.874;7.024;2023-03-23T04:26:40;12.50;90.70
30889;DHT22;51092;50.874;7.024;2023-03-23T04:27:44;12.60;90.50
30889;DHT22;51092;50.874;7.024;2023-03-23T04:28:47;12.60;90.40
30889;DHT22;51092;50.874;7.024;2023-03-23T04:29:51;12.60;90.20
30889;DHT22;51092;50.874;7.024;2023-03-23T04:30:54;12.70;90.00
30889;DHT22;51092;50.874;7.024;2023-03-23T04:31:56;12.70;89.80
30889;DHT22;51092;50.874;7.024;2023-03-23T04:32:59;12.70;89.70
30889;DHT22;51092;50.874;7.024;2023-03-23T04:34:02;12.70;89.80
30889;DHT22;51092;50.874;7.024;2023-03-23T04:35:06;12.70;90.00
30889;DHT22;51092;50.874;7.024;2023-03-23T04:36:07;12.70;90.00
30889;DHT22;51092;50.874;7.024;2023-03-23T04:37:09;12.70;90.10
30889;DHT22;51092;50.874;7.024;2023-03-23T04:38:11;12.70;90.00
30889;DHT22;51092;50.874;7.024;2023-03-23T04:39:13;12.60;90.50
30889;DHT22;51092;50.874;7.024;2023-03-23T04:40:17;12.60;90.60
30889;DHT22;51092;50.874;7.024;2023-03-23T04:41:19;12.60;90.80
30889;DHT22;51092;50.874;7.024;2023-03-23T04:42:21;12.60;90.90
30889;DHT22;51092;50.874;7.024;2023-03-23T04:43:26;12.60;90.80
30889;DHT22;51092;50.874;7.024;2023-03-23T04:44:28;12.50;90.80
30889;DHT22;51092;50.874;7.024;2023-03-23T04:45:30;12.60;90.80
30889;DHT22;51092;50.874;7.024;2023-03-23T04:46:33;12.60;90.70
30889;DHT22;51092;50.874;7.024;2023-03-23T04:47:36;12.60;90.70
30889;DHT22;51092;50.874;7.024;2023-03-23T04:48:41;12.60;90.80
30889;DHT22;51092;50.874;7.024;2023-03-23T04:49:42;12.60;90.70
30889;DHT22;51092;50.874;7.024;2023-03-23T04:50:45;12.60;90.90
30889;DHT22;51092;50.874;7.024;2023-03-23T04:51:47;12.70;90.20
30889;DHT22;51092;50.874;7.024;2023-03-23T04:52:50;12.70;90.30
30889;DHT22;51092;50.874;7.024;2023-03-23T04:53:52;12.70;90.20
30889;DHT22;51092;50.874;7.024;2023-03-23T04:54:56;12.80;90.10
30889;DHT22;51092;50.874;7.024;2023-03-23T04:55:58;12.80;89.70
30889;DHT22;51092;50.874;7.024;2023-03-23T04:57:02;12.70;90.20
30889;DHT22;51092;50.874;7.024;2023-03-23T04:58:04;12.70;89.90
30889;DHT22;51092;50.874;7.024;2023-03-23T04:59:07;12.80;90.00
30889;DHT22;51092;50.874;7.024;2023-03-23T05:00:09;12.80;89.80
30889;DHT22;51092;50.874;7.024;2023-03-23T05:01:15;12.70;89.40
30889;DHT22;51092;50.874;7.024;2023-03-23T05:02:18;12.70;89.80
30889;DHT22;51092;50.874;7.024;2023-03-23T05:03:20;12.70;90.10
30889;DHT22;51092;50.874;7.024;2023-03-23T05:04:23;12.70;90.00
30889;DHT22;51092;50.874;7.024;2023-03-23T05:05:27;12.60;90.50
30889;DHT22;51092;50.874;7.024;2023-03-23T05:06:31;12.50;90.70
30889;DHT22;51092;50.874;7.024;2023-03-23T05:07:33;12.50;90.80
30889;DHT22;51092;50.874;7.024;2023-03-23T05:08:36;12.60;90.70
30889;DHT22;51092;50.874;7.024;2023-03-23T05:09:39;12.50;90.60
30889;DHT22;51092;50.874;7.024;2023-03-23T05:10:49;12.50;91.00
30889;DHT22;51092;50.874;7.024;2023-03-23T05:11:52;12.40;91.30
30889;DHT22;51092;50.874;7.024;2023-03-23T05:12:54;12.40;91.50
30889;DHT22;51092;50.874;7.024;2023-03-23T05:13:56;12.40;91.60
30889;DHT22;51092;50.874;7.024;2023-03-23T05:15:00;12.30;91.80
30889;DHT22;51092;50.874;7.024;2023-03-23T05:16:03;12.40;91.80
30889;DHT22;51092;50.874;7.024;2023-03-23T05:17:06;12.40;91.70
30889;DHT22;51092;50.874;7.024;2023-03-23T05:18:08;12.40;91.70
30889;DHT22;51092;50.874;7.024;2023-03-23T05:19:12;12.40;91.90
30889;DHT22;51092;50.874;7.024;2023-03-23T05:20:15;12.40;92.00
30889;DHT22;51092;50.874;7.024;2023-03-23T05:21:21;12.40;92.00
30889;DHT22;51092;50.874;7.024;2023-03-23T05:22:23;12.50;91.80
30889;DHT22;51092;50.874;7.024;2023-03-23T05:23:25;12.40;91.50
30889;DHT22;51092;50.874;7.024;2023-03-23T05:24:27;12.50;91.60
30889;DHT22;51092;50.874;7.024;2023-03-23T05:25:32;12.50;91.60
30889;DHT22;51092;50.874;7.024;2023-03-23T05:26:39;12.50;91.50
30889;DHT22;51092;50.874;7.024;2023-03-23T05:27:46;12.50;91.40
30889;DHT22;51092;50.874;7.024;2023-03-23T05:28:49;12.50;91.00
30889;DHT22;51092;50.874;7.024;2023-03-23T05:29:53;12.50;91.40
30889;DHT22;51092;50.874;7.024;2023-03-23T05:30:55;12.50;91.30
30889;DHT22;51092;50.874;7.024;2023-03-23T05:31:58;12.50;91.30
30889;DHT22;51092;50.874;7.024;2023-03-23T05:33:00;12.50;91.60
30889;DHT22;51092;50.874;7.024;2023-03-23T05:34:02;12.40;91.80
30889;DHT22;51092;50.874;7.024;2023-03-23T05:35:04;12.40;91.90
30889;DHT22;51092;50.874;7.024;2023-03-23T05:36:07;12.40;91.90
30889;DHT22;51092;50.874;7.024;2023-03-23T05:37:12;12.50;91.70
30889;DHT22;51092;50.874;7.024;2023-03-23T05:38:15;12.50;91.70
30889;DHT22;51092;50.874;7.024;2023-03-23T05:39:17;12.50;91.70
30889;DHT22;51092;50.874;7.024;2023-03-23T05:40:19;12.50;91.50
30889;DHT22;51092;50.874;7.024;2023-03-23T05:41:21;12.50;91.40
30889;DHT22;51092;50.874;7.024;2023-03-23T05:42:25;12.60;91.20
30889;DHT22;51092;50.874;7.024;2023-03-23T05:43:27;12.60;91.20
30889;DHT22;51092;50.874;7.024;2023-03-23T05:44:29;12.60;91.40
30889;DHT22;51092;50.874;7.024;2023-03-23T05:45:31;12.60;91.20
30889;DHT22;51092;50.874;7.024;2023-03-23T05:46:33;12.60;91.10
30889;DHT22;51092;50.874;7.024;2023-03-23T05:47:35;12.60;91.10
30889;DHT22;51092;50.874;7.024;2023-03-23T05:48:37;12.50;91.20
30889;DHT22;51092;50.874;7.024;2023-03-23T05:49:39;12.60;91.60
30889;DHT22;51092;50.874;7.024;2023-03-23T05:50:42;12.50;91.40
30889;DHT22;51092;50.874;7.024;2023-03-23T05:51:44;12.50;91.40
30889;DHT22;51092;50.874;7.024;2023-03-23T05:52:46;12.60;91.30
30889;DHT22;51092;50.874;7.024;2023-03-23T05:53:48;12.60;91.00
30889;DHT22;51092;50.874;7.024;2023-03-23T05:54:51;12.60;91.00
30889;DHT22;51092;50.874;7.024;2023-03-23T05:55:52;12.60;91.20
30889;DHT22;51092;50.874;7.024;2023-03-23T05:56:55;12.60;90.90
30889;DHT22;51092;50.874;7.024;2023-03-23T05:57:58;12.60;91.00
30889;DHT22;51092;50.874;7.024;2023-03-23T05:59:01;12.60;90.90
30889;DHT22;51092;50.874;7.024;2023-03-23T06:00:05;12.70;90.60
30889;DHT22;51092;50.874;7.024;2023-03-23T06:01:16;12.70;90.70
30889;DHT22;51092;50.874;7.024;2023-03-23T06:02:17;12.70;90.40
30889;DHT22;51092;50.874;7.024;2023-03-23T06:03:20;12.70;90.50
30889;DHT22;51092;50.874;7.024;2023-03-23T06:04:22;12.70;90.50
30889;DHT22;51092;50.874;7.024;2023-03-23T06:05:25;12.70;90.10
30889;DHT22;51092;50.874;7.024;2023-03-23T06:06:28;12.70;90.30
30889;DHT22;51092;50.874;7.024;2023-03-23T06:07:31;12.70;90.10
30889;DHT22;51092;50.874;7.024;2023-03-23T06:08:33;12.70;90.00
30889;DHT22;51092;50.874;7.024;2023-03-23T06:09:38;12.70;89.60
30889;DHT22;51092;50.874;7.024;2023-03-23T06:10:39;12.70;89.00
30889;DHT22;51092;50.874;7.024;2023-03-23T06:11:42;12.70;88.70
30889;DHT22;51092;50.874;7.024;2023-03-23T06:12:43;12.70;88.40
30889;DHT22;51092;50.874;7.024;2023-03-23T06:13:47;12.70;87.70
30889;DHT22;51092;50.874;7.024;2023-03-23T06:14:49;12.70;87.30
30889;DHT22;51092;50.874;7.024;2023-03-23T06:15:55;12.80;86.90
30889;DHT22;51092;50.874;7.024;2023-03-23T06:16:58;12.80;86.60
30889;DHT22;51092;50.874;7.024;2023-03-23T06:18:01;12.80;86.30
30889;DHT22;51092;50.874;7.024;2023-03-23T06:19:02;12.80;85.70
30889;DHT22;51092;50.874;7.024;2023-03-23T06:20:05;12.90;85.70
30889;DHT22;51092;50.874;7.024;2023-03-23T06:21:11;12.90;85.50
30889;DHT22;51092;50.874;7.024;2023-03-23T06:22:13;12.90;85.50
30889;DHT22;51092;50.874;7.024;2023-03-23T06:23:15;13.00;84.70
30889;DHT22;51092;50.874;7.024;2023-03-23T06:24:18;13.00;84.40
30889;DHT22;51092;50.874;7.024;2023-03-23T06:25:20;13.00;84.70
30889;DHT22;51092;50.874;7.024;2023-03-23T06:26:25;13.00;84.30
30889;DHT22;51092;50.874;7.024;2023-03-23T06:27:27;13.00;83.80
30889;DHT22;51092;50.874;7.024;2023-03-23T06:28:30;13.00;84.00
30889;DHT22;51092;50.874;7.024;2023-03-23T06:29:33;13.00;83.80
30889;DHT22;51092;50.874;7.024;2023-03-23T06:30:36;13.00;83.90
30889;DHT22;51092;50.874;7.024;2023-03-23T06:31:39;13.10;83.30
30889;DHT22;51092;50.874;7.024;2023-03-23T06:32:42;13.10;83.10
30889;DHT22;51092;50.874;7.024;2023-03-23T06:33:44;13.10;82.90
30889;DHT22;51092;50.874;7.024;2023-03-23T06:34:48;13.10;82.80
30889;DHT22;51092;50.874;7.024;2023-03-23T06:35:50;13.20;82.50
30889;DHT22;51092;50.874;7.024;2023-03-23T06:36:53;13.20;82.10
30889;DHT22;51092;50.874;7.024;2023-03-23T06:37:54;13.20;82.00
30889;DHT22;51092;50.874;7.024;2023-03-23T06:38:59;13.20;82.00
30889;DHT22;51092;50.874;7.024;2023-03-23T06:40:01;13.20;81.90
30889;DHT22;51092;50.874;7.024;2023-03-23T06:41:05;13.20;81.70
30889;DHT22;51092;50.874;7.024;2023-03-23T06:42:09;13.20;82.10
30889;DHT22;51092;50.874;7.024;2023-03-23T06:43:12;13.20;81.70
30889;DHT22;51092;50.874;7.024;2023-03-23T06:44:15;13.20;81.60
30889;DHT22;51092;50.874;7.024;2023-03-23T06:45:18;13.20;81.70
30889;DHT22;51092;50.874;7.024;2023-03-23T06:46:22;13.30;81.30
30889;DHT22;51092;50.874;7.024;2023-03-23T06:47:23;13.30;81.10